sensor_id;sensor_type;location;lat;lon;timestamp;P1;durP1;ratioP1;P2;durP2;ratioP2
22318;SDS011;11327;52.334;9.506;2022-07-22T00:03:07;12.33;;;11.10;;
22318;SDS011;11327;52.334;9.506;2022-07-22T00:06:29;11.65;;;10.35;;
22318;SDS011;11327;52.334;9.506;2022-07-22T00:09:50;12.60;;;11.30;;
22318;SDS011;11327;52.334;9.506;2022-07-22T00:13:11;10.48;;;9.43;;
22318;SDS011;11327;52.334;9.506;2022-07-22T00:16:32;12.80;;;11.12;;
22318;SDS011;11327;52.334;9.506;2022-07-22T00:19:53;12.30;;;11.10;;
22318;SDS011;11327;52.334;9.506;2022-07-22T00:23:14;14.03;;;11.57;;
22318;SDS011;11327;52.334;9.506;2022-07-22T00:26:35;12.78;;;11.33;;
22318;SDS011;11327;52.334;9.506;2022-07-22T00:29:56;12.68;;;11.38;;
22318;SDS011;11327;52.334;9.506;2022-07-22T00:33:17;12.55;;;11.18;;
22318;SDS011;11327;52.334;9.506;2022-07-22T00:36:38;14.87;;;13.35;;
22318;SDS011;11327;52.334;9.506;2022-07-22T00:39:59;14.38;;;12.88;;
22318;SDS011;11327;52.334;9.506;2022-07-22T00:43:20;13.32;;;11.95;;
22318;SDS011;11327;52.334;9.506;2022-07-22T00:46:41;12.30;;;10.78;;
22318;SDS011;11327;52.334;9.506;2022-07-22T00:50:03;13.88;;;12.40;;
22318;SDS011;11327;52.334;9.506;2022-07-22T00:53:25;13.35;;;11.95;;
22318;SDS011;11327;52.334;9.506;2022-07-22T00:56:47;12.90;;;11.60;;
22318;SDS011;11327;52.334;9.506;2022-07-22T01:00:09;12.75;;;11.03;;
22318;SDS011;11327;52.334;9.506;2022-07-22T01:03:33;12.98;;;11.12;;
22318;SDS011;11327;52.334;9.506;2022-07-22T01:06:54;11.38;;;10.23;;
22318;SDS011;11327;52.334;9.506;2022-07-22T01:10:15;11.38;;;9.63;;
22318;SDS011;11327;52.334;9.506;2022-07-22T01:13:36;11.25;;;10.05;;
22318;SDS011;11327;52.334;9.506;2022-07-22T01:16:57;11.60;;;9.58;;
22318;SDS011;11327;52.334;9.506;2022-07-22T01:20:18;10.82;;;9.73;;
22318;SDS011;11327;52.334;9.506;2022-07-22T01:23:39;11.68;;;10.48;;
22318;SDS011;11327;52.334;9.506;2022-07-22T01:27:01;10.95;;;9.53;;
22318;SDS011;11327;52.334;9.506;2022-07-22T01:30:22;11.00;;;9.83;;
22318;SDS011;11327;52.334;9.506;2022-07-22T01:33:43;11.35;;;9.20;;
22318;SDS011;11327;52.334;9.506;2022-07-22T01:37:05;10.53;;;9.35;;
22318;SDS011;11327;52.334;9.506;2022-07-22T01:40:26;10.40;;;9.30;;
22318;SDS011;11327;52.334;9.506;2022-07-22T01:43:47;10.10;;;9.10;;
22318;SDS011;11327;52.334;9.506;2022-07-22T01:47:08;10.05;;;9.05;;
22318;SDS011;11327;52.334;9.506;2022-07-22T01:50:29;13.08;;;9.50;;
22318;SDS011;11327;52.334;9.506;2022-07-22T01:53:50;12.45;;;10.32;;
22318;SDS011;11327;52.334;9.506;2022-07-22T01:57:11;11.93;;;9.18;;
22318;SDS011;11327;52.334;9.506;2022-07-22T02:00:33;11.75;;;8.45;;
22318;SDS011;11327;52.334;9.506;2022-07-22T02:03:54;9.10;;;7.08;;
22318;SDS011;11327;52.334;9.506;2022-07-22T02:07:15;10.60;;;7.37;;
22318;SDS011;11327;52.334;9.506;2022-07-22T02:10:36;10.20;;;7.75;;
22318;SDS011;11327;52.334;9.506;2022-07-22T02:13:58;9.25;;;6.92;;
22318;SDS011;11327;52.334;9.506;2022-07-22T02:17:19;10.15;;;6.95;;
22318;SDS011;11327;52.334;9.506;2022-07-22T02:20:43;8.60;;;6.67;;
22318;SDS011;11327;52.334;9.506;2022-07-22T02:24:05;8.63;;;6.58;;
22318;SDS011;11327;52.334;9.506;2022-07-22T02:27:37;11.60;;;7.55;;
22318;SDS011;11327;52.334;9.506;2022-07-22T02:30:58;10.72;;;7.60;;
22318;SDS011;11327;52.334;9.506;2022-07-22T02:34:19;11.68;;;8.30;;
22318;SDS011;11327;52.334;9.506;2022-07-22T02:37:40;10.63;;;7.60;;
22318;SDS011;11327;52.334;9.506;2022-07-22T02:41:01;11.05;;;7.05;;
22318;SDS011;11327;52.334;9.506;2022-07-22T02:44:22;9.38;;;6.40;;
22318;SDS011;11327;52.334;9.506;2022-07-22T02:47:50;11.80;;;7.08;;
22318;SDS011;11327;52.334;9.506;2022-07-22T02:51:13;9.15;;;6.53;;
22318;SDS011;11327;52.334;9.506;2022-07-22T02:54:34;8.95;;;6.50;;
22318;SDS011;11327;52.334;9.506;2022-07-22T02:57:55;9.70;;;6.03;;
22318;SDS011;11327;52.334;9.506;2022-07-22T03:01:16;9.30;;;6.47;;
22318;SDS011;11327;52.334;9.506;2022-07-22T03:04:38;9.28;;;6.95;;
22318;SDS011;11327;52.334;9.506;2022-07-22T03:07:59;7.50;;;6.12;;
22318;SDS011;11327;52.334;9.506;2022-07-22T03:11:20;7.95;;;5.97;;
22318;SDS011;11327;52.334;9.506;2022-07-22T03:14:41;9.60;;;6.62;;
22318;SDS011;11327;52.334;9.506;2022-07-22T03:18:02;11.65;;;7.53;;
22318;SDS011;11327;52.334;9.506;2022-07-22T03:21:23;11.93;;;8.55;;
22318;SDS011;11327;52.334;9.506;2022-07-22T03:24:44;7.42;;;6.22;;
22318;SDS011;11327;52.334;9.506;2022-07-22T03:28:05;7.30;;;6.10;;
22318;SDS011;11327;52.334;9.506;2022-07-22T03:31:27;8.53;;;5.28;;
22318;SDS011;11327;52.334;9.506;2022-07-22T03:34:48;6.78;;;5.15;;
22318;SDS011;11327;52.334;9.506;2022-07-22T03:38:09;5.45;;;4.92;;
22318;SDS011;11327;52.334;9.506;2022-07-22T03:41:30;7.58;;;5.08;;
22318;SDS011;11327;52.334;9.506;2022-07-22T03:44:51;7.42;;;5.00;;
22318;SDS011;11327;52.334;9.506;2022-07-22T03:48:12;8.23;;;5.70;;
22318;SDS011;11327;52.334;9.506;2022-07-22T03:51:33;8.03;;;5.45;;
22318;SDS011;11327;52.334;9.506;2022-07-22T03:54:54;7.95;;;5.70;;
22318;SDS011;11327;52.334;9.506;2022-07-22T03:58:15;6.33;;;5.22;;
22318;SDS011;11327;52.334;9.506;2022-07-22T04:01:38;6.62;;;5.25;;
22318;SDS011;11327;52.334;9.506;2022-07-22T04:04:59;6.45;;;4.50;;
22318;SDS011;11327;52.334;9.506;2022-07-22T04:08:20;6.33;;;4.22;;
22318;SDS011;11327;52.334;9.506;2022-07-22T04:11:41;5.53;;;3.77;;
22318;SDS011;11327;52.334;9.506;2022-07-22T04:15:03;3.80;;;3.10;;
22318;SDS011;11327;52.334;9.506;2022-07-22T04:18:25;4.42;;;3.30;;
22318;SDS011;11327;52.334;9.506;2022-07-22T04:21:46;6.40;;;3.17;;
22318;SDS011;11327;52.334;9.506;2022-07-22T04:25:14;5.42;;;3.40;;
22318;SDS011;11327;52.334;9.506;2022-07-22T04:28:35;4.67;;;3.15;;
22318;SDS011;11327;52.334;9.506;2022-07-22T04:31:56;4.65;;;3.33;;
22318;SDS011;11327;52.334;9.506;2022-07-22T04:35:17;4.72;;;3.40;;
22318;SDS011;11327;52.334;9.506;2022-07-22T04:38:38;6.35;;;3.75;;
22318;SDS011;11327;52.334;9.506;2022-07-22T04:41:59;5.80;;;3.83;;
22318;SDS011;11327;52.334;9.506;2022-07-22T04:45:20;4.37;;;3.77;;
22318;SDS011;11327;52.334;9.506;2022-07-22T04:48:41;5.67;;;3.83;;
22318;SDS011;11327;52.334;9.506;2022-07-22T04:52:03;6.37;;;4.25;;
22318;SDS011;11327;52.334;9.506;2022-07-22T04:55:24;4.95;;;3.62;;
22318;SDS011;11327;52.334;9.506;2022-07-22T04:58:45;5.55;;;3.55;;
22318;SDS011;11327;52.334;9.506;2022-07-22T05:02:06;5.25;;;3.22;;
22318;SDS011;11327;52.334;9.506;2022-07-22T05:05:27;5.05;;;3.30;;
22318;SDS011;11327;52.334;9.506;2022-07-22T05:08:48;3.72;;;3.12;;
22318;SDS011;11327;52.334;9.506;2022-07-22T05:12:09;6.30;;;3.00;;
22318;SDS011;11327;52.334;9.506;2022-07-22T05:15:30;5.25;;;2.70;;
22318;SDS011;11327;52.334;9.506;2022-07-22T05:18:51;4.25;;;2.80;;
22318;SDS011;11327;52.334;9.506;2022-07-22T05:22:12;3.33;;;2.35;;
22318;SDS011;11327;52.334;9.506;2022-07-22T05:25:33;3.75;;;2.42;;
22318;SDS011;11327;52.334;9.506;2022-07-22T05:28:55;4.10;;;2.55;;
22318;SDS011;11327;52.334;9.506;2022-07-22T05:32:16;4.47;;;2.65;;
22318;SDS011;11327;52.334;9.506;2022-07-22T05:35:37;4.15;;;2.50;;
22318;SDS011;11327;52.334;9.506;2022-07-22T05:38:58;4.53;;;2.55;;
22318;SDS011;11327;52.334;9.506;2022-07-22T05:42:19;4.22;;;2.60;;
22318;SDS011;11327;52.334;9.506;2022-07-22T05:45:40;3.58;;;2.52;;
22318;SDS011;11327;52.334;9.506;2022-07-22T05:49:01;4.53;;;2.55;;
22318;SDS011;11327;52.334;9.506;2022-07-22T05:52:22;5.05;;;3.60;;
22318;SDS011;11327;52.334;9.506;2022-07-22T05:55:44;6.97;;;3.75;;
22318;SDS011;11327;52.334;9.506;2022-07-22T05:59:04;5.55;;;3.22;;
22318;SDS011;11327;52.334;9.506;2022-07-22T06:02:26;4.35;;;3.12;;
22318;SDS011;11327;52.334;9.506;2022-07-22T06:05:49;5.50;;;3.27;;
22318;SDS011;11327;52.334;9.506;2022-07-22T06:09:10;5.50;;;2.87;;
22318;SDS011;11327;52.334;9.506;2022-07-22T06:12:31;4.03;;;2.92;;
22318;SDS011;11327;52.334;9.506;2022-07-22T06:15:52;4.50;;;2.92;;
22318;SDS011;11327;52.334;9.506;2022-07-22T06:19:13;5.47;;;2.95;;
22318;SDS011;11327;52.334;9.506;2022-07-22T06:22:34;5.85;;;3.08;;
22318;SDS011;11327;52.334;9.506;2022-07-22T06:25:55;4.22;;;2.37;;
22318;SDS011;11327;52.334;9.506;2022-07-22T06:29:16;3.70;;;2.60;;
22318;SDS011;11327;52.334;9.506;2022-07-22T06:32:37;6.72;;;2.80;;
22318;SDS011;11327;52.334;9.506;2022-07-22T06:35:58;4.08;;;2.60;;
22318;SDS011;11327;52.334;9.506;2022-07-22T06:39:20;5.05;;;2.40;;
22318;SDS011;11327;52.334;9.506;2022-07-22T06:42:41;4.67;;;2.25;;
22318;SDS011;11327;52.334;9.506;2022-07-22T06:46:02;4.87;;;2.25;;
22318;SDS011;11327;52.334;9.506;2022-07-22T06:49:23;7.17;;;2.42;;
22318;SDS011;11327;52.334;9.506;2022-07-22T06:52:44;3.15;;;2.40;;
22318;SDS011;11327;52.334;9.506;2022-07-22T06:56:05;4.50;;;2.72;;
22318;SDS011;11327;52.334;9.506;2022-07-22T06:59:26;6.30;;;3.12;;
22318;SDS011;11327;52.334;9.506;2022-07-22T07:02:47;4.40;;;2.60;;
22318;SDS011;11327;52.334;9.506;2022-07-22T07:06:09;7.05;;;3.15;;
22318;SDS011;11327;52.334;9.506;2022-07-22T07:09:31;6.47;;;3.37;;
22318;SDS011;11327;52.334;9.506;2022-07-22T07:12:56;4.55;;;2.95;;
22318;SDS011;11327;52.334;9.506;2022-07-22T07:16:18;3.65;;;2.60;;
22318;SDS011;11327;52.334;9.506;2022-07-22T07:19:39;4.08;;;2.50;;
22318;SDS011;11327;52.334;9.506;2022-07-22T07:23:00;4.35;;;2.60;;
22318;SDS011;11327;52.334;9.506;2022-07-22T07:26:22;4.97;;;2.50;;
22318;SDS011;11327;52.334;9.506;2022-07-22T07:29:43;5.85;;;2.70;;
22318;SDS011;11327;52.334;9.506;2022-07-22T07:33:06;5.28;;;2.42;;
22318;SDS011;11327;52.334;9.506;2022-07-22T07:36:29;5.55;;;2.45;;
22318;SDS011;11327;52.334;9.506;2022-07-22T07:39:50;5.80;;;2.20;;
22318;SDS011;11327;52.334;9.506;2022-07-22T07:43:11;8.35;;;2.55;;
22318;SDS011;11327;52.334;9.506;2022-07-22T07:46:32;6.45;;;2.37;;
22318;SDS011;11327;52.334;9.506;2022-07-22T07:49:53;5.85;;;2.40;;
22318;SDS011;11327;52.334;9.506;2022-07-22T07:53:14;7.78;;;2.65;;
22318;SDS011;11327;52.334;9.506;2022-07-22T07:56:36;8.58;;;2.35;;
22318;SDS011;11327;52.334;9.506;2022-07-22T07:59:57;6.47;;;2.60;;
22318;SDS011;11327;52.334;9.506;2022-07-22T08:03:18;7.37;;;2.70;;
22318;SDS011;11327;52.334;9.506;2022-07-22T08:06:39;4.87;;;2.20;;
22318;SDS011;11327;52.334;9.506;2022-07-22T08:10:00;7.03;;;2.80;;
22318;SDS011;11327;52.334;9.506;2022-07-22T08:13:21;5.83;;;2.87;;
22318;SDS011;11327;52.334;9.506;2022-07-22T08:16:42;7.12;;;2.65;;
22318;SDS011;11327;52.334;9.506;2022-07-22T08:20:03;5.40;;;2.83;;
22318;SDS011;11327;52.334;9.506;2022-07-22T08:23:25;7.72;;;3.12;;
22318;SDS011;11327;52.334;9.506;2022-07-22T08:26:47;8.05;;;2.80;;
22318;SDS011;11327;52.334;9.506;2022-07-22T08:30:08;5.05;;;2.22;;
22318;SDS011;11327;52.334;9.506;2022-07-22T08:33:29;4.97;;;2.40;;
22318;SDS011;11327;52.334;9.506;2022-07-22T08:36:50;5.70;;;2.17;;
22318;SDS011;11327;52.334;9.506;2022-07-22T08:40:11;8.03;;;2.60;;
22318;SDS011;11327;52.334;9.506;2022-07-22T08:43:34;8.10;;;2.65;;
22318;SDS011;11327;52.334;9.506;2022-07-22T08:46:55;6.20;;;2.55;;
22318;SDS011;11327;52.334;9.506;2022-07-22T08:50:17;5.08;;;2.60;;
22318;SDS011;11327;52.334;9.506;2022-07-22T08:53:38;6.33;;;3.15;;
22318;SDS011;11327;52.334;9.506;2022-07-22T08:56:59;6.72;;;3.35;;
22318;SDS011;11327;52.334;9.506;2022-07-22T09:00:21;7.17;;;3.42;;
22318;SDS011;11327;52.334;9.506;2022-07-22T09:03:43;7.15;;;3.35;;
22318;SDS011;11327;52.334;9.506;2022-07-22T09:07:06;8.10;;;3.50;;
22318;SDS011;11327;52.334;9.506;2022-07-22T09:10:31;4.60;;;3.52;;
22318;SDS011;11327;52.334;9.506;2022-07-22T09:13:54;6.10;;;3.20;;
22318;SDS011;11327;52.334;9.506;2022-07-22T09:17:26;5.28;;;3.30;;
22318;SDS011;11327;52.334;9.506;2022-07-22T09:20:59;6.45;;;3.62;;
22318;SDS011;11327;52.334;9.506;2022-07-22T09:24:27;7.25;;;3.87;;
22318;SDS011;11327;52.334;9.506;2022-07-22T09:27:50;7.45;;;3.83;;
22318;SDS011;11327;52.334;9.506;2022-07-22T09:31:29;9.05;;;4.10;;
22318;SDS011;11327;52.334;9.506;2022-07-22T09:34:47;4.97;;;3.27;;
22318;SDS011;11327;52.334;9.506;2022-07-22T09:38:09;7.33;;;3.40;;
22318;SDS011;11327;52.334;9.506;2022-07-22T09:41:31;8.25;;;4.28;;
22318;SDS011;11327;52.334;9.506;2022-07-22T09:44:52;5.65;;;3.62;;
22318;SDS011;11327;52.334;9.506;2022-07-22T09:48:16;6.62;;;4.00;;
22318;SDS011;11327;52.334;9.506;2022-07-22T09:51:38;10.23;;;3.80;;
22318;SDS011;11327;52.334;9.506;2022-07-22T09:54:59;4.97;;;3.20;;
22318;SDS011;11327;52.334;9.506;2022-07-22T09:58:21;7.53;;;4.10;;
22318;SDS011;11327;52.334;9.506;2022-07-22T10:01:42;5.33;;;2.80;;
22318;SDS011;11327;52.334;9.506;2022-07-22T10:05:03;4.70;;;2.62;;
22318;SDS011;11327;52.334;9.506;2022-07-22T10:08:25;4.35;;;2.67;;
22318;SDS011;11327;52.334;9.506;2022-07-22T10:11:47;5.33;;;2.72;;
22318;SDS011;11327;52.334;9.506;2022-07-22T10:15:09;5.22;;;2.50;;
22318;SDS011;11327;52.334;9.506;2022-07-22T10:18:31;5.00;;;2.58;;
22318;SDS011;11327;52.334;9.506;2022-07-22T10:21:52;7.33;;;2.55;;
22318;SDS011;11327;52.334;9.506;2022-07-22T10:25:13;4.72;;;2.70;;
22318;SDS011;11327;52.334;9.506;2022-07-22T10:28:36;5.00;;;2.60;;
22318;SDS011;11327;52.334;9.506;2022-07-22T10:39:19;7.45;;;2.87;;
22318;SDS011;11327;52.334;9.506;2022-07-22T10:46:46;5.03;;;2.77;;
22318;SDS011;11327;52.334;9.506;2022-07-22T10:53:57;4.22;;;2.67;;
22318;SDS011;11327;52.334;9.506;2022-07-22T10:57:30;3.65;;;2.22;;
22318;SDS011;11327;52.334;9.506;2022-07-22T11:00:52;4.12;;;2.30;;
22318;SDS011;11327;52.334;9.506;2022-07-22T11:04:15;4.10;;;2.47;;
22318;SDS011;11327;52.334;9.506;2022-07-22T11:07:44;3.77;;;2.37;;
22318;SDS011;11327;52.334;9.506;2022-07-22T11:11:05;3.80;;;2.40;;
22318;SDS011;11327;52.334;9.506;2022-07-22T11:14:28;5.28;;;2.30;;
22318;SDS011;11327;52.334;9.506;2022-07-22T11:17:57;4.42;;;2.58;;
22318;SDS011;11327;52.334;9.506;2022-07-22T11:21:19;4.70;;;2.45;;
22318;SDS011;11327;52.334;9.506;2022-07-22T11:24:42;5.42;;;2.87;;
22318;SDS011;11327;52.334;9.506;2022-07-22T11:28:05;6.10;;;2.70;;
22318;SDS011;11327;52.334;9.506;2022-07-22T11:31:26;5.03;;;2.87;;
22318;SDS011;11327;52.334;9.506;2022-07-22T11:34:47;5.53;;;3.12;;
22318;SDS011;11327;52.334;9.506;2022-07-22T11:38:08;4.33;;;2.60;;
22318;SDS011;11327;52.334;9.506;2022-07-22T11:41:30;5.75;;;2.70;;
22318;SDS011;11327;52.334;9.506;2022-07-22T11:44:51;6.50;;;2.80;;
22318;SDS011;11327;52.334;9.506;2022-07-22T11:48:13;3.47;;;2.40;;
22318;SDS011;11327;52.334;9.506;2022-07-22T11:51:35;6.28;;;2.52;;
22318;SDS011;11327;52.334;9.506;2022-07-22T11:54:57;4.75;;;2.60;;
22318;SDS011;11327;52.334;9.506;2022-07-22T11:58:28;6.58;;;2.85;;
22318;SDS011;11327;52.334;9.506;2022-07-22T12:01:43;6.28;;;2.72;;
22318;SDS011;11327;52.334;9.506;2022-07-22T12:05:05;4.80;;;2.58;;
22318;SDS011;11327;52.334;9.506;2022-07-22T12:08:27;4.70;;;2.50;;
22318;SDS011;11327;52.334;9.506;2022-07-22T12:11:50;5.62;;;2.70;;
22318;SDS011;11327;52.334;9.506;2022-07-22T12:15:13;6.47;;;2.70;;
22318;SDS011;11327;52.334;9.506;2022-07-22T12:18:38;5.40;;;2.60;;
22318;SDS011;11327;52.334;9.506;2022-07-22T12:22:08;6.17;;;2.77;;
22318;SDS011;11327;52.334;9.506;2022-07-22T12:25:27;4.20;;;2.50;;
22318;SDS011;11327;52.334;9.506;2022-07-22T12:28:48;5.83;;;3.12;;
22318;SDS011;11327;52.334;9.506;2022-07-22T12:32:25;4.42;;;2.45;;
22318;SDS011;11327;52.334;9.506;2022-07-22T12:36:02;9.05;;;3.33;;
22318;SDS011;11327;52.334;9.506;2022-07-22T12:39:21;5.97;;;2.87;;
22318;SDS011;11327;52.334;9.506;2022-07-22T12:42:43;5.53;;;2.77;;
22318;SDS011;11327;52.334;9.506;2022-07-22T12:46:07;6.47;;;3.17;;
22318;SDS011;11327;52.334;9.506;2022-07-22T12:49:28;6.15;;;3.30;;
22318;SDS011;11327;52.334;9.506;2022-07-22T12:52:50;6.50;;;3.12;;
22318;SDS011;11327;52.334;9.506;2022-07-22T12:56:12;6.60;;;3.40;;
22318;SDS011;11327;52.334;9.506;2022-07-22T12:59:34;5.80;;;3.30;;
22318;SDS011;11327;52.334;9.506;2022-07-22T13:02:56;6.22;;;3.17;;
22318;SDS011;11327;52.334;9.506;2022-07-22T13:06:17;7.53;;;3.50;;
22318;SDS011;11327;52.334;9.506;2022-07-22T13:09:39;6.87;;;3.80;;
22318;SDS011;11327;52.334;9.506;2022-07-22T13:13:00;7.75;;;3.60;;
22318;SDS011;11327;52.334;9.506;2022-07-22T13:16:21;6.33;;;3.27;;
22318;SDS011;11327;52.334;9.506;2022-07-22T13:19:42;6.53;;;3.37;;
22318;SDS011;11327;52.334;9.506;2022-07-22T13:23:03;6.17;;;3.40;;
22318;SDS011;11327;52.334;9.506;2022-07-22T13:26:24;6.72;;;3.40;;
22318;SDS011;11327;52.334;9.506;2022-07-22T13:29:46;5.85;;;3.10;;
22318;SDS011;11327;52.334;9.506;2022-07-22T13:33:07;6.25;;;3.22;;
22318;SDS011;11327;52.334;9.506;2022-07-22T13:36:28;7.33;;;3.87;;
22318;SDS011;11327;52.334;9.506;2022-07-22T13:39:51;6.83;;;3.25;;
22318;SDS011;11327;52.334;9.506;2022-07-22T13:43:12;7.70;;;3.98;;
22318;SDS011;11327;52.334;9.506;2022-07-22T13:46:36;7.08;;;3.40;;
22318;SDS011;11327;52.334;9.506;2022-07-22T13:49:58;6.67;;;3.90;;
22318;SDS011;11327;52.334;9.506;2022-07-22T13:53:19;7.72;;;3.35;;
22318;SDS011;11327;52.334;9.506;2022-07-22T13:56:40;6.53;;;3.65;;
22318;SDS011;11327;52.334;9.506;2022-07-22T14:00:02;6.62;;;4.30;;
22318;SDS011;11327;52.334;9.506;2022-07-22T14:03:26;6.53;;;4.15;;
22318;SDS011;11327;52.334;9.506;2022-07-22T14:06:48;7.08;;;3.75;;
22318;SDS011;11327;52.334;9.506;2022-07-22T14:10:09;5.55;;;3.52;;
22318;SDS011;11327;52.334;9.506;2022-07-22T14:13:30;7.85;;;4.08;;
22318;SDS011;11327;52.334;9.506;2022-07-22T14:16:51;7.55;;;3.92;;
22318;SDS011;11327;52.334;9.506;2022-07-22T14:20:12;11.97;;;4.90;;
22318;SDS011;11327;52.334;9.506;2022-07-22T14:23:33;12.65;;;4.55;;
22318;SDS011;11327;52.334;9.506;2022-07-22T14:26:54;7.95;;;4.10;;
22318;SDS011;11327;52.334;9.506;2022-07-22T14:30:15;7.10;;;3.95;;
22318;SDS011;11327;52.334;9.506;2022-07-22T14:33:36;7.87;;;4.58;;
22318;SDS011;11327;52.334;9.506;2022-07-22T14:36:57;7.58;;;4.58;;
22318;SDS011;11327;52.334;9.506;2022-07-22T14:40:18;9.98;;;4.50;;
22318;SDS011;11327;52.334;9.506;2022-07-22T14:43:40;5.85;;;4.05;;
22318;SDS011;11327;52.334;9.506;2022-07-22T14:47:01;8.15;;;4.20;;
22318;SDS011;11327;52.334;9.506;2022-07-22T14:50:22;5.67;;;3.65;;
22318;SDS011;11327;52.334;9.506;2022-07-22T14:53:43;6.25;;;4.40;;
22318;SDS011;11327;52.334;9.506;2022-07-22T14:57:04;5.28;;;3.65;;
22318;SDS011;11327;52.334;9.506;2022-07-22T15:00:25;6.50;;;3.77;;
22318;SDS011;11327;52.334;9.506;2022-07-22T15:03:46;6.80;;;3.95;;
22318;SDS011;11327;52.334;9.506;2022-07-22T15:07:08;7.42;;;3.83;;
22318;SDS011;11327;52.334;9.506;2022-07-22T15:10:29;9.03;;;3.70;;
22318;SDS011;11327;52.334;9.506;2022-07-22T15:13:51;6.42;;;3.77;;
22318;SDS011;11327;52.334;9.506;2022-07-22T15:17:12;7.12;;;4.53;;
22318;SDS011;11327;52.334;9.506;2022-07-22T15:20:33;5.83;;;3.85;;
22318;SDS011;11327;52.334;9.506;2022-07-22T15:23:55;7.08;;;3.70;;
22318;SDS011;11327;52.334;9.506;2022-07-22T15:27:16;7.42;;;3.92;;
22318;SDS011;11327;52.334;9.506;2022-07-22T15:30:38;5.83;;;3.60;;
22318;SDS011;11327;52.334;9.506;2022-07-22T15:33:59;7.60;;;4.50;;
22318;SDS011;11327;52.334;9.506;2022-07-22T15:37:21;8.33;;;4.80;;
22318;SDS011;11327;52.334;9.506;2022-07-22T15:40:43;7.47;;;4.75;;
22318;SDS011;11327;52.334;9.506;2022-07-22T15:44:05;7.33;;;4.87;;
22318;SDS011;11327;52.334;9.506;2022-07-22T15:47:27;7.42;;;3.92;;
22318;SDS011;11327;52.334;9.506;2022-07-22T15:50:48;5.45;;;4.25;;
22318;SDS011;11327;52.334;9.506;2022-07-22T15:54:09;7.60;;;4.83;;
22318;SDS011;11327;52.334;9.506;2022-07-22T15:57:30;8.90;;;4.87;;
22318;SDS011;11327;52.334;9.506;2022-07-22T16:01:09;10.95;;;4.60;;
22318;SDS011;11327;52.334;9.506;2022-07-22T16:04:30;9.33;;;4.33;;
22318;SDS011;11327;52.334;9.506;2022-07-22T16:07:51;6.92;;;4.33;;
22318;SDS011;11327;52.334;9.506;2022-07-22T16:11:12;8.05;;;4.35;;
22318;SDS011;11327;52.334;9.506;2022-07-22T16:14:33;9.00;;;4.35;;
22318;SDS011;11327;52.334;9.506;2022-07-22T16:17:54;7.20;;;4.35;;
22318;SDS011;11327;52.334;9.506;2022-07-22T16:21:15;7.85;;;4.12;;
22318;SDS011;11327;52.334;9.506;2022-07-22T16:24:37;7.53;;;4.58;;
22318;SDS011;11327;52.334;9.506;2022-07-22T16:27:58;19.95;;;6.78;;
22318;SDS011;11327;52.334;9.506;2022-07-22T16:31:19;24.90;;;6.55;;
22318;SDS011;11327;52.334;9.506;2022-07-22T16:34:42;20.12;;;6.00;;
22318;SDS011;11327;52.334;9.506;2022-07-22T16:38:03;10.10;;;4.45;;
22318;SDS011;11327;52.334;9.506;2022-07-22T16:41:24;8.93;;;4.75;;
22318;SDS011;11327;52.334;9.506;2022-07-22T16:44:45;9.05;;;4.30;;
22318;SDS011;11327;52.334;9.506;2022-07-22T16:48:06;7.10;;;4.47;;
22318;SDS011;11327;52.334;9.506;2022-07-22T16:51:27;19.32;;;6.37;;
22318;SDS011;11327;52.334;9.506;2022-07-22T16:54:49;9.08;;;4.72;;
22318;SDS011;11327;52.334;9.506;2022-07-22T16:58:10;20.57;;;6.87;;
22318;SDS011;11327;52.334;9.506;2022-07-22T17:01:31;14.03;;;5.35;;
22318;SDS011;11327;52.334;9.506;2022-07-22T17:04:52;13.60;;;5.33;;
22318;SDS011;11327;52.334;9.506;2022-07-22T17:08:13;13.50;;;5.12;;
22318;SDS011;11327;52.334;9.506;2022-07-22T17:11:34;14.90;;;6.05;;
22318;SDS011;11327;52.334;9.506;2022-07-22T17:14:55;8.95;;;5.15;;
22318;SDS011;11327;52.334;9.506;2022-07-22T17:18:16;8.13;;;4.22;;
22318;SDS011;11327;52.334;9.506;2022-07-22T17:21:37;7.20;;;4.80;;
22318;SDS011;11327;52.334;9.506;2022-07-22T17:24:58;6.62;;;4.67;;
22318;SDS011;11327;52.334;9.506;2022-07-22T17:28:19;8.13;;;4.42;;
22318;SDS011;11327;52.334;9.506;2022-07-22T17:31:41;6.90;;;4.60;;
22318;SDS011;11327;52.334;9.506;2022-07-22T17:35:02;10.28;;;6.37;;
22318;SDS011;11327;52.334;9.506;2022-07-22T17:38:23;8.70;;;5.35;;
22318;SDS011;11327;52.334;9.506;2022-07-22T17:41:44;7.47;;;4.50;;
22318;SDS011;11327;52.334;9.506;2022-07-22T17:45:06;7.15;;;4.40;;
22318;SDS011;11327;52.334;9.506;2022-07-22T17:48:28;10.00;;;4.90;;
22318;SDS011;11327;52.334;9.506;2022-07-22T17:51:49;7.17;;;4.50;;
22318;SDS011;11327;52.334;9.506;2022-07-22T17:55:10;7.85;;;4.40;;
22318;SDS011;11327;52.334;9.506;2022-07-22T17:58:31;6.70;;;4.10;;
22318;SDS011;11327;52.334;9.506;2022-07-22T18:01:52;5.30;;;4.33;;
22318;SDS011;11327;52.334;9.506;2022-07-22T18:05:13;6.87;;;4.50;;
22318;SDS011;11327;52.334;9.506;2022-07-22T18:08:34;5.50;;;4.53;;
22318;SDS011;11327;52.334;9.506;2022-07-22T18:11:55;8.70;;;4.78;;
22318;SDS011;11327;52.334;9.506;2022-07-22T18:15:16;5.92;;;4.42;;
22318;SDS011;11327;52.334;9.506;2022-07-22T18:18:37;7.67;;;4.75;;
22318;SDS011;11327;52.334;9.506;2022-07-22T18:21:58;7.30;;;4.75;;
22318;SDS011;11327;52.334;9.506;2022-07-22T18:25:20;8.73;;;4.85;;
22318;SDS011;11327;52.334;9.506;2022-07-22T18:28:41;5.08;;;4.40;;
22318;SDS011;11327;52.334;9.506;2022-07-22T18:32:03;6.33;;;4.55;;
22318;SDS011;11327;52.334;9.506;2022-07-22T18:35:24;7.22;;;4.58;;
22318;SDS011;11327;52.334;9.506;2022-07-22T18:38:46;5.95;;;4.95;;
22318;SDS011;11327;52.334;9.506;2022-07-22T18:42:07;6.05;;;4.87;;
22318;SDS011;11327;52.334;9.506;2022-07-22T18:45:28;7.65;;;4.80;;
22318;SDS011;11327;52.334;9.506;2022-07-22T18:48:49;9.35;;;5.15;;
22318;SDS011;11327;52.334;9.506;2022-07-22T18:52:10;5.83;;;4.53;;
22318;SDS011;11327;52.334;9.506;2022-07-22T18:55:31;5.70;;;5.05;;
22318;SDS011;11327;52.334;9.506;2022-07-22T18:58:52;6.95;;;5.22;;
22318;SDS011;11327;52.334;9.506;2022-07-22T19:02:14;7.37;;;4.70;;
22318;SDS011;11327;52.334;9.506;2022-07-22T19:05:35;7.87;;;4.75;;
22318;SDS011;11327;52.334;9.506;2022-07-22T19:08:57;7.05;;;4.83;;
22318;SDS011;11327;52.334;9.506;2022-07-22T19:12:18;7.80;;;4.90;;
22318;SDS011;11327;52.334;9.506;2022-07-22T19:15:39;6.70;;;4.72;;
22318;SDS011;11327;52.334;9.506;2022-07-22T19:19:01;7.42;;;4.85;;
22318;SDS011;11327;52.334;9.506;2022-07-22T19:22:22;6.17;;;4.72;;
22318;SDS011;11327;52.334;9.506;2022-07-22T19:25:44;8.13;;;4.67;;
22318;SDS011;11327;52.334;9.506;2022-07-22T19:29:05;8.20;;;4.95;;
22318;SDS011;11327;52.334;9.506;2022-07-22T19:32:26;7.95;;;4.80;;
22318;SDS011;11327;52.334;9.506;2022-07-22T19:35:47;7.70;;;5.00;;
22318;SDS011;11327;52.334;9.506;2022-07-22T19:39:07;7.42;;;5.00;;
22318;SDS011;11327;52.334;9.506;2022-07-22T19:42:28;7.85;;;5.08;;
22318;SDS011;11327;52.334;9.506;2022-07-22T19:45:51;6.75;;;5.08;;
22318;SDS011;11327;52.334;9.506;2022-07-22T19:49:12;7.15;;;5.42;;
22318;SDS011;11327;52.334;9.506;2022-07-22T19:52:33;9.30;;;5.70;;
22318;SDS011;11327;52.334;9.506;2022-07-22T19:55:55;8.48;;;5.55;;
22318;SDS011;11327;52.334;9.506;2022-07-22T19:59:17;8.80;;;6.28;;
22318;SDS011;11327;52.334;9.506;2022-07-22T20:02:38;8.53;;;6.03;;
22318;SDS011;11327;52.334;9.506;2022-07-22T20:05:59;9.08;;;6.00;;
22318;SDS011;11327;52.334;9.506;2022-07-22T20:09:21;8.23;;;5.90;;
22318;SDS011;11327;52.334;9.506;2022-07-22T20:12:42;6.60;;;5.45;;
22318;SDS011;11327;52.334;9.506;2022-07-22T20:16:04;8.23;;;6.55;;
22318;SDS011;11327;52.334;9.506;2022-07-22T20:19:25;8.08;;;6.20;;
22318;SDS011;11327;52.334;9.506;2022-07-22T20:22:46;7.95;;;5.78;;
22318;SDS011;11327;52.334;9.506;2022-07-22T20:26:07;8.45;;;6.10;;
22318;SDS011;11327;52.334;9.506;2022-07-22T20:29:28;8.60;;;5.83;;